Lombardville, Illinois
Current Conditions -  °F | °C
As of 11:55 AM on Monday 24 Nov 2014 (Local Time) from KC75 Reporting Station
Overcast Overcast  
Wind Chill: 19°   Ceiling: 1300
Heat Index: 31°   Visibility: 10mi
Dew Point: 27°   Wind: 21mph
Humidity: 83%   Direction: 270°W
Pressure: 29.5"   Gusts: 30mph
Location:  41.1472°N, 89.6399°W
Report Text: KC75 241755Z AUTO 27018G26KT 10SM OVC013 00/M03 A2950 RMK AO2 60009 T10041029 10025 21004
Loading
Personal Weather Stations






























Interactive Weather Map New forecast layout! Learn more

10-Day Weather Forecast

Advertisements
Track Severe Weather on mobile